createdAt,value
2022-09-24T00:01:32.268Z,14.30
2022-09-24T00:04:00.773Z,14.30
2022-09-24T00:06:29.088Z,14.30
2022-09-24T00:08:57.073Z,14.20
2022-09-24T00:11:25.356Z,14.20
2022-09-24T00:13:53.136Z,14.20
2022-09-24T00:16:21.657Z,14.40
2022-09-24T00:18:48.995Z,14.10
2022-09-24T00:21:16.066Z,14.10
2022-09-24T00:23:43.212Z,14.00
2022-09-24T00:26:30.084Z,14.00
2022-09-24T00:28:57.505Z,13.90
2022-09-24T00:31:25.430Z,13.90
2022-09-24T00:33:53.086Z,13.90
2022-09-24T00:36:20.981Z,13.90
2022-09-24T00:38:51.859Z,13.80
2022-09-24T00:41:20.425Z,13.80
2022-09-24T00:43:48.574Z,13.70
2022-09-24T00:46:15.726Z,13.70
2022-09-24T00:48:43.261Z,13.60
2022-09-24T00:51:14.098Z,13.70
2022-09-24T00:53:41.744Z,13.70
2022-09-24T00:56:10.306Z,13.60
2022-09-24T00:58:37.474Z,13.70
2022-09-24T01:01:05.875Z,13.70
2022-09-24T01:03:35.964Z,13.60
2022-09-24T01:06:03.072Z,13.60
2022-09-24T01:08:30.197Z,13.60
2022-09-24T01:11:11.093Z,13.60
2022-09-24T01:13:46.620Z,13.60
2022-09-24T01:16:28.905Z,13.60
2022-09-24T01:19:21.960Z,13.60
2022-09-24T01:21:52.257Z,13.50
2022-09-24T01:24:23.014Z,13.40
2022-09-24T01:27:25.562Z,13.50
2022-09-24T01:30:01.687Z,12.10
2022-09-24T01:32:33.720Z,13.40
2022-09-24T01:35:03.559Z,13.40
2022-09-24T01:37:33.848Z,13.30
2022-09-24T01:40:01.603Z,13.30
2022-09-24T01:42:30.373Z,13.30
2022-09-24T01:44:58.355Z,13.30
2022-09-24T01:47:38.017Z,13.30
2022-09-24T01:50:09.301Z,14.20
2022-09-24T01:52:55.103Z,13.30
2022-09-24T01:55:25.431Z,13.30
2022-09-24T01:57:55.440Z,13.30
2022-09-24T02:00:22.696Z,13.30
2022-09-24T02:02:53.453Z,13.20
2022-09-24T02:05:31.726Z,13.20
2022-09-24T02:08:11.073Z,13.30
2022-09-24T02:10:42.755Z,13.20
2022-09-24T02:13:10.783Z,13.20
2022-09-24T02:15:40.117Z,13.20
2022-09-24T02:18:08.966Z,12.30
2022-09-24T02:20:36.924Z,13.20
2022-09-24T02:23:05.062Z,13.20
2022-09-24T02:25:39.443Z,13.20
2022-09-24T02:28:06.541Z,13.10
2022-09-24T02:30:37.951Z,13.10
2022-09-24T02:33:27.335Z,13.20
2022-09-24T02:35:58.237Z,13.10
2022-09-24T02:38:25.441Z,13.10
2022-09-24T02:40:53.516Z,13.10
2022-09-24T02:43:20.677Z,13.10
2022-09-24T02:45:47.746Z,13.10
2022-09-24T02:48:14.886Z,13.00
2022-09-24T02:50:42.024Z,13.10
2022-09-24T02:53:09.159Z,13.20
2022-09-24T02:55:36.215Z,13.10
2022-09-24T02:58:03.296Z,13.20
2022-09-24T03:00:30.378Z,13.20
2022-09-24T03:02:58.752Z,13.20
2022-09-24T03:05:29.063Z,13.20
2022-09-24T03:07:56.328Z,13.20
2022-09-24T03:10:24.196Z,13.30
2022-09-24T03:12:51.261Z,13.30
2022-09-24T03:15:18.339Z,13.30
2022-09-24T03:17:45.374Z,13.30
2022-09-24T03:20:12.473Z,13.30
2022-09-24T03:22:39.649Z,13.30
2022-09-24T03:25:06.866Z,13.40
2022-09-24T03:27:34.058Z,13.40
2022-09-24T03:30:19.572Z,13.30
2022-09-24T03:32:48.108Z,13.40
2022-09-24T03:35:15.784Z,13.40
2022-09-24T03:37:47.019Z,13.40
2022-09-24T03:40:16.232Z,13.40
2022-09-24T03:42:43.376Z,13.40
2022-09-24T03:45:10.727Z,13.50
2022-09-24T03:47:38.621Z,13.40
2022-09-24T03:50:06.088Z,13.30
2022-09-24T03:52:34.023Z,13.40
2022-09-24T03:55:01.066Z,12.50
2022-09-24T03:57:28.236Z,13.30
2022-09-24T03:59:55.465Z,13.30
2022-09-24T04:02:22.659Z,13.30
2022-09-24T04:04:50.546Z,13.30
2022-09-24T04:07:17.916Z,13.30
2022-09-24T04:09:44.978Z,13.30
2022-09-24T04:12:13.229Z,12.50
2022-09-24T04:14:40.284Z,13.30
2022-09-24T04:17:07.459Z,13.30
2022-09-24T04:19:34.723Z,13.30
2022-09-24T04:22:01.829Z,13.70
2022-09-24T04:24:28.885Z,13.30
2022-09-24T04:26:56.266Z,13.30
2022-09-24T04:29:23.405Z,13.30
2022-09-24T04:31:50.622Z,13.30
2022-09-24T04:34:18.092Z,13.20
2022-09-24T04:36:45.187Z,13.20
2022-09-24T04:39:12.535Z,13.20
2022-09-24T04:41:40.298Z,13.20
2022-09-24T04:44:07.375Z,13.10
2022-09-24T04:46:34.655Z,12.60
2022-09-24T04:49:01.827Z,13.00
2022-09-24T04:51:28.996Z,13.10
2022-09-24T04:53:56.062Z,13.00
2022-09-24T04:56:23.094Z,13.00
2022-09-24T04:58:51.139Z,12.90
2022-09-24T05:01:18.630Z,12.90
2022-09-24T05:03:46.157Z,12.90
2022-09-24T05:06:14.907Z,12.90
2022-09-24T05:08:42.181Z,12.80
2022-09-24T05:11:09.350Z,12.80
2022-09-24T05:13:36.682Z,13.20
2022-09-24T05:16:03.839Z,12.80
2022-09-24T05:18:30.956Z,12.80
2022-09-24T05:20:58.025Z,12.70
2022-09-24T05:23:25.182Z,12.70
2022-09-24T05:26:10.836Z,12.60
2022-09-24T05:28:40.328Z,12.60
2022-09-24T05:31:09.160Z,12.60
2022-09-24T05:33:36.788Z,12.60
2022-09-24T05:36:04.606Z,11.60
2022-09-24T05:38:33.087Z,12.50
2022-09-24T05:41:00.283Z,12.60
2022-09-24T05:43:31.769Z,12.90
2022-09-24T05:45:58.877Z,12.50
2022-09-24T05:48:28.869Z,12.40
2022-09-24T05:50:56.483Z,12.60
2022-09-24T05:53:24.106Z,12.50
2022-09-24T05:55:51.162Z,12.40
2022-09-24T05:58:18.393Z,12.40
2022-09-24T06:00:48.641Z,12.50
2022-09-24T06:03:16.767Z,12.50
2022-09-24T06:05:46.373Z,12.50
2022-09-24T06:08:15.340Z,12.50
2022-09-24T06:10:43.072Z,12.50
2022-09-24T06:13:11.598Z,11.70
2022-09-24T06:15:38.895Z,12.50
2022-09-24T06:18:05.960Z,12.40
2022-09-24T06:20:33.589Z,12.40
2022-09-24T06:23:02.523Z,12.40
2022-09-24T06:25:30.337Z,12.40
2022-09-24T06:28:00.483Z,12.50
2022-09-24T06:30:29.078Z,12.40
2022-09-24T06:33:01.805Z,12.40
2022-09-24T06:35:28.830Z,12.40
2022-09-24T06:37:55.946Z,12.40
2022-09-24T06:40:26.116Z,12.40
2022-09-24T06:42:53.845Z,12.40
2022-09-24T06:45:21.538Z,12.40
2022-09-24T06:47:55.284Z,12.40
2022-09-24T06:50:24.113Z,12.50
2022-09-24T06:52:54.442Z,12.50
2022-09-24T06:55:21.811Z,12.50
2022-09-24T06:57:48.982Z,12.60
2022-09-24T07:00:16.390Z,12.60
2022-09-24T07:02:43.609Z,12.60
2022-09-24T07:05:10.730Z,12.60
2022-09-24T07:07:37.848Z,12.70
2022-09-24T07:10:06.364Z,12.70
2022-09-24T07:12:34.423Z,12.80
2022-09-24T07:15:01.813Z,12.80
2022-09-24T07:17:33.796Z,12.80
2022-09-24T07:20:01.660Z,12.80
2022-09-24T07:22:28.717Z,12.80
2022-09-24T07:24:55.981Z,12.80
2022-09-24T07:27:23.179Z,12.80
2022-09-24T07:29:50.295Z,12.80
2022-09-24T07:32:20.031Z,12.90
2022-09-24T07:34:47.176Z,12.40
2022-09-24T07:37:14.687Z,12.90
2022-09-24T07:39:41.817Z,12.90
2022-09-24T07:42:08.907Z,13.00
2022-09-24T07:44:36.550Z,13.00
2022-09-24T07:47:03.777Z,13.10
2022-09-24T07:49:32.722Z,13.40
2022-09-24T07:52:00.261Z,13.20
2022-09-24T07:54:27.915Z,13.10
2022-09-24T07:56:55.005Z,13.20
2022-09-24T07:59:22.101Z,13.20
2022-09-24T08:01:49.363Z,13.10
2022-09-24T08:04:18.505Z,13.30
2022-09-24T08:06:47.724Z,13.30
2022-09-24T08:09:15.646Z,13.30
2022-09-24T08:11:42.897Z,13.30
2022-09-24T08:14:10.020Z,13.30
2022-09-24T08:16:39.588Z,13.40
2022-09-24T08:19:06.742Z,13.40
2022-09-24T08:21:34.076Z,13.40
2022-09-24T08:24:01.393Z,13.50
2022-09-24T08:26:28.482Z,14.80
2022-09-24T08:28:55.741Z,13.60
2022-09-24T08:31:22.871Z,13.60
2022-09-24T08:33:50.951Z,13.50
2022-09-24T08:36:18.877Z,13.60
2022-09-24T08:38:45.953Z,13.70
2022-09-24T08:41:13.048Z,13.70
2022-09-24T08:43:58.764Z,13.80
2022-09-24T08:47:18.121Z,13.80
2022-09-24T08:49:46.956Z,13.90
2022-09-24T08:52:26.281Z,13.90
2022-09-24T08:54:54.492Z,13.90
2022-09-24T08:57:22.208Z,14.00
2022-09-24T08:59:52.933Z,14.00
2022-09-24T09:02:40.361Z,14.00
2022-09-24T09:05:18.562Z,14.10
2022-09-24T09:07:53.991Z,14.10
2022-09-24T09:10:27.903Z,14.20
2022-09-24T09:12:56.992Z,14.20
2022-09-24T09:15:32.115Z,14.30
2022-09-24T09:18:13.019Z,14.40
2022-09-24T09:20:44.341Z,14.40
2022-09-24T09:23:30.036Z,14.40
2022-09-24T09:25:58.165Z,15.30
2022-09-24T09:28:28.333Z,14.50
2022-09-24T09:31:08.193Z,14.60
2022-09-24T09:33:56.853Z,14.70
2022-09-24T09:36:35.754Z,14.60
2022-09-24T09:39:05.980Z,14.70
2022-09-24T09:41:41.800Z,14.70
2022-09-24T09:44:35.122Z,14.70
2022-09-24T09:47:11.503Z,14.70
2022-09-24T09:49:39.156Z,13.60
2022-09-24T09:52:13.310Z,14.80
2022-09-24T09:54:42.121Z,14.80
2022-09-24T09:57:13.053Z,14.80
2022-09-24T09:59:40.175Z,14.90
2022-09-24T10:02:11.115Z,14.90
2022-09-24T10:04:39.657Z,15.10
2022-09-24T10:07:14.696Z,15.10
2022-09-24T10:09:42.686Z,15.10
2022-09-24T10:12:15.016Z,15.10
2022-09-24T10:14:42.198Z,15.10
2022-09-24T10:17:17.098Z,15.60
2022-09-24T10:19:47.899Z,15.20
2022-09-24T10:22:18.697Z,15.20
2022-09-24T10:24:45.795Z,15.20
2022-09-24T10:27:13.799Z,15.20
2022-09-24T10:29:59.529Z,15.20
2022-09-24T10:32:29.564Z,15.30
2022-09-24T10:34:57.725Z,15.30
2022-09-24T10:37:25.044Z,15.30
2022-09-24T10:40:01.982Z,15.80
2022-09-24T10:42:30.145Z,15.30
2022-09-24T10:45:01.244Z,15.30
2022-09-24T10:47:31.125Z,15.90
2022-09-24T10:50:07.647Z,15.40
2022-09-24T10:52:49.702Z,15.50
2022-09-24T10:55:32.572Z,15.60
2022-09-24T10:58:03.161Z,15.50
2022-09-24T11:00:32.205Z,15.60
2022-09-24T11:03:02.381Z,15.60
2022-09-24T11:05:47.968Z,15.60
2022-09-24T11:08:18.401Z,15.60
2022-09-24T11:10:45.486Z,15.60
2022-09-24T11:13:23.851Z,15.50
2022-09-24T11:15:59.697Z,15.70
2022-09-24T11:18:36.497Z,15.70
2022-09-24T11:21:03.549Z,15.80
2022-09-24T11:23:42.079Z,15.90
2022-09-24T11:26:21.345Z,15.90
2022-09-24T11:28:57.340Z,16.00
2022-09-24T11:31:27.527Z,15.90
2022-09-24T11:34:07.905Z,15.90
2022-09-24T11:36:35.065Z,15.90
2022-09-24T11:39:21.465Z,15.90
2022-09-24T11:41:59.598Z,15.90
2022-09-24T11:44:27.176Z,15.90
2022-09-24T11:47:09.865Z,15.90
2022-09-24T11:49:36.977Z,15.90
2022-09-24T11:52:23.045Z,15.90
2022-09-24T11:55:00.715Z,15.90
2022-09-24T11:57:36.848Z,15.90
2022-09-24T12:00:22.108Z,15.90
2022-09-24T12:02:49.444Z,16.50
2022-09-24T12:05:19.901Z,15.90
2022-09-24T12:07:53.126Z,16.00
2022-09-24T12:10:43.537Z,16.00
2022-09-24T12:13:20.669Z,16.10
2022-09-24T12:15:53.700Z,16.20
2022-09-24T12:18:40.569Z,16.30
2022-09-24T12:21:10.478Z,16.30
2022-09-24T12:23:39.761Z,16.30
2022-09-24T12:26:08.013Z,16.30
2022-09-24T12:29:12.800Z,16.40
2022-09-24T12:32:07.594Z,16.50
2022-09-24T12:34:37.777Z,16.50
2022-09-24T12:37:08.251Z,16.50
2022-09-24T12:39:38.754Z,16.50
2022-09-24T12:42:10.855Z,16.50
2022-09-24T12:44:43.506Z,16.50
2022-09-24T12:47:20.228Z,16.50
2022-09-24T12:49:52.665Z,16.50
2022-09-24T12:52:32.795Z,16.50
2022-09-24T12:55:02.363Z,16.50
2022-09-24T12:57:32.731Z,16.50
2022-09-24T13:00:00.791Z,16.50
2022-09-24T13:02:29.338Z,16.60
2022-09-24T13:05:02.793Z,16.60
2022-09-24T13:07:31.582Z,16.60
2022-09-24T13:10:10.725Z,16.60
2022-09-24T13:12:37.835Z,16.70
2022-09-24T13:15:08.409Z,16.70
2022-09-24T13:17:36.123Z,16.70
2022-09-24T13:20:07.653Z,16.70
2022-09-24T13:22:35.917Z,16.70
2022-09-24T13:25:09.010Z,16.70
2022-09-24T13:27:42.974Z,16.70
2022-09-24T13:30:20.372Z,16.60
2022-09-24T13:33:02.648Z,16.70
2022-09-24T13:35:42.606Z,16.70
2022-09-24T13:38:30.590Z,16.80
2022-09-24T13:41:01.710Z,16.80
2022-09-24T13:43:45.334Z,16.90
2022-09-24T13:46:14.832Z,17.00
2022-09-24T13:48:48.823Z,17.20
2022-09-24T13:51:17.577Z,17.20
2022-09-24T13:54:08.149Z,17.20
2022-09-24T13:56:35.243Z,18.20
2022-09-24T13:59:03.502Z,17.00
2022-09-24T14:01:35.227Z,17.00
2022-09-24T14:04:20.529Z,17.00
2022-09-24T14:06:53.041Z,17.00
2022-09-24T14:09:29.071Z,17.00
2022-09-24T14:11:58.644Z,17.00
2022-09-24T14:14:27.990Z,17.00
2022-09-24T14:17:05.911Z,17.80
2022-09-24T14:19:34.640Z,16.90
2022-09-24T14:22:03.456Z,16.90
2022-09-24T14:24:34.895Z,16.80
2022-09-24T14:27:04.382Z,16.80
2022-09-24T14:29:47.846Z,16.80
2022-09-24T14:32:42.215Z,16.80
2022-09-24T14:35:41.758Z,16.80
2022-09-24T14:38:14.198Z,16.80
2022-09-24T14:40:55.605Z,16.80
2022-09-24T14:43:31.709Z,16.80
2022-09-24T14:46:04.182Z,17.50
2022-09-24T14:48:32.394Z,16.90
2022-09-24T14:50:59.657Z,16.90
2022-09-24T14:53:28.097Z,17.00
2022-09-24T14:55:55.753Z,17.00
2022-09-24T14:58:25.651Z,17.10
2022-09-24T15:00:55.535Z,17.10
2022-09-24T15:03:34.438Z,17.10
2022-09-24T15:06:13.623Z,17.20
2022-09-24T15:08:41.651Z,17.10
2022-09-24T15:11:14.950Z,17.10
2022-09-24T15:13:42.199Z,17.00
2022-09-24T15:16:28.031Z,16.80
2022-09-24T15:19:01.309Z,16.80
2022-09-24T15:21:30.111Z,16.70
2022-09-24T15:23:57.330Z,16.70
2022-09-24T15:26:29.114Z,16.60
2022-09-24T15:28:59.512Z,16.60
2022-09-24T15:31:26.877Z,16.50
2022-09-24T15:33:54.810Z,16.50
2022-09-24T15:36:22.694Z,16.50
2022-09-24T15:38:58.120Z,16.70
2022-09-24T15:41:25.240Z,16.40
2022-09-24T15:43:56.162Z,16.40
2022-09-24T15:46:23.470Z,16.40
2022-09-24T15:48:53.134Z,16.40
2022-09-24T15:51:21.975Z,16.30
2022-09-24T15:53:50.309Z,16.30
2022-09-24T15:56:17.602Z,16.30
2022-09-24T15:58:45.241Z,16.30
2022-09-24T16:01:15.969Z,16.60
2022-09-24T16:03:44.441Z,16.30
2022-09-24T16:06:12.234Z,16.40
2022-09-24T16:08:39.308Z,13.90
2022-09-24T16:11:09.070Z,16.20
2022-09-24T16:13:36.538Z,16.20
2022-09-24T16:16:06.239Z,16.20
2022-09-24T16:18:33.452Z,16.20
2022-09-24T16:21:04.345Z,16.20
2022-09-24T16:23:31.447Z,16.30
2022-09-24T16:25:59.325Z,16.30
2022-09-24T16:28:27.141Z,16.20
2022-09-24T16:30:54.551Z,16.30
2022-09-24T16:33:22.100Z,16.40
2022-09-24T16:35:49.200Z,16.30
2022-09-24T16:38:22.465Z,16.40
2022-09-24T16:40:58.937Z,15.00
2022-09-24T16:43:26.050Z,16.30
2022-09-24T16:45:53.332Z,16.30
2022-09-24T16:48:20.425Z,16.40
2022-09-24T16:50:49.729Z,16.30
2022-09-24T16:53:16.913Z,16.30
2022-09-24T16:55:43.998Z,16.30
2022-09-24T16:58:11.092Z,16.30
2022-09-24T17:00:42.322Z,16.30
2022-09-24T17:03:10.939Z,16.20
2022-09-24T17:05:40.695Z,16.20
2022-09-24T17:08:07.795Z,16.30
2022-09-24T17:10:34.863Z,16.20
2022-09-24T17:13:02.249Z,16.20
2022-09-24T17:15:29.404Z,16.20
2022-09-24T17:17:56.645Z,16.10
2022-09-24T17:20:23.700Z,16.10
2022-09-24T17:22:50.861Z,16.20
2022-09-24T17:25:17.972Z,16.10
2022-09-24T17:27:45.116Z,16.10
2022-09-24T17:30:12.705Z,16.10
2022-09-24T17:32:58.771Z,16.00
2022-09-24T17:35:26.448Z,16.00
2022-09-24T17:37:53.508Z,15.90
2022-09-24T17:40:24.213Z,15.90
2022-09-24T17:42:52.821Z,15.90
2022-09-24T17:45:23.725Z,16.20
2022-09-24T17:47:57.416Z,15.80
2022-09-24T17:50:24.792Z,15.90
2022-09-24T17:52:51.892Z,15.80
2022-09-24T17:55:19.025Z,15.80
2022-09-24T17:57:46.132Z,15.80
2022-09-24T18:00:13.470Z,15.80
2022-09-24T18:02:40.591Z,15.80
2022-09-24T18:05:09.034Z,15.80
2022-09-24T18:07:36.185Z,15.70
2022-09-24T18:10:03.589Z,15.70
2022-09-24T18:12:30.670Z,15.70
2022-09-24T18:14:57.799Z,15.70
2022-09-24T18:17:25.114Z,15.90
2022-09-24T18:19:52.219Z,15.60
2022-09-24T18:22:19.504Z,15.60
2022-09-24T18:24:47.246Z,15.50
2022-09-24T18:27:16.298Z,15.50
2022-09-24T18:29:44.758Z,15.60
2022-09-24T18:32:13.550Z,15.50
2022-09-24T18:34:40.680Z,15.20
2022-09-24T18:37:07.740Z,15.40
2022-09-24T18:39:34.839Z,15.40
2022-09-24T18:42:01.952Z,15.30
2022-09-24T18:44:29.047Z,15.30
2022-09-24T18:46:56.181Z,15.30
2022-09-24T18:49:24.113Z,15.30
2022-09-24T18:51:52.102Z,15.30
2022-09-24T18:54:19.404Z,14.90
2022-09-24T18:56:46.587Z,15.20
2022-09-24T18:59:15.141Z,15.20
2022-09-24T19:01:43.324Z,15.10
2022-09-24T19:04:13.569Z,15.10
2022-09-24T19:06:42.172Z,15.10
2022-09-24T19:09:10.407Z,15.10
2022-09-24T19:11:38.791Z,15.00
2022-09-24T19:14:05.991Z,15.10
2022-09-24T19:16:33.657Z,15.00
2022-09-24T19:19:01.299Z,15.10
2022-09-24T19:21:28.564Z,15.00
2022-09-24T19:23:56.748Z,15.00
2022-09-24T19:26:25.961Z,15.00
2022-09-24T19:28:53.045Z,15.00
2022-09-24T19:31:22.192Z,15.00
2022-09-24T19:33:50.115Z,15.00
2022-09-24T19:36:20.097Z,15.00
2022-09-24T19:38:47.546Z,15.00
2022-09-24T19:41:18.296Z,15.00
2022-09-24T19:43:45.483Z,15.00
2022-09-24T19:46:14.806Z,14.90
2022-09-24T19:48:42.773Z,15.00
2022-09-24T19:51:14.197Z,14.90
2022-09-24T19:53:42.218Z,14.90
2022-09-24T19:56:11.089Z,15.20
2022-09-24T19:58:38.229Z,14.90
2022-09-24T20:01:06.545Z,14.90
2022-09-24T20:03:34.391Z,14.90
2022-09-24T20:06:07.231Z,14.90
2022-09-24T20:08:34.535Z,14.90
2022-09-24T20:11:12.192Z,14.90
2022-09-24T20:13:43.182Z,14.90
2022-09-24T20:16:10.385Z,14.90
2022-09-24T20:18:37.500Z,14.80
2022-09-24T20:21:05.589Z,15.10
2022-09-24T20:23:32.662Z,14.80
2022-09-24T20:26:18.530Z,14.90
2022-09-24T20:28:45.619Z,14.80
2022-09-24T20:31:13.828Z,14.80
2022-09-24T20:33:42.569Z,14.80
2022-09-24T20:36:15.495Z,14.80
2022-09-24T20:38:44.534Z,14.80
2022-09-24T20:41:13.868Z,14.70
2022-09-24T20:43:40.997Z,14.70
2022-09-24T20:46:10.490Z,14.70
2022-09-24T20:48:37.647Z,14.70
2022-09-24T20:51:08.805Z,14.40
2022-09-24T20:53:36.077Z,14.40
2022-09-24T20:56:03.338Z,15.60
2022-09-24T20:58:30.459Z,14.60
2022-09-24T21:00:57.714Z,14.60
2022-09-24T21:03:43.138Z,14.60
2022-09-24T21:06:11.891Z,14.60
2022-09-24T21:08:40.672Z,14.60
2022-09-24T21:11:09.428Z,14.50
2022-09-24T21:13:39.989Z,14.50
2022-09-24T21:16:07.200Z,14.90
2022-09-24T21:18:40.177Z,14.50
2022-09-24T21:21:12.083Z,14.50
2022-09-24T21:23:39.701Z,14.40
2022-09-24T21:26:10.552Z,14.40
2022-09-24T21:28:37.747Z,14.40
2022-09-24T21:31:05.668Z,14.30
2022-09-24T21:33:33.529Z,14.10
2022-09-24T21:36:01.434Z,14.20
2022-09-24T21:38:28.655Z,14.30
2022-09-24T21:40:56.387Z,14.20
2022-09-24T21:43:26.240Z,15.10
2022-09-24T21:46:04.302Z,13.60
2022-09-24T21:48:32.459Z,14.20
2022-09-24T21:51:03.798Z,14.20
2022-09-24T21:53:31.078Z,14.20
2022-09-24T21:55:58.575Z,14.10
2022-09-24T21:58:25.943Z,14.10
2022-09-24T22:00:53.773Z,14.10
2022-09-24T22:03:20.958Z,14.20
2022-09-24T22:05:48.489Z,14.10
2022-09-24T22:08:16.840Z,14.20
2022-09-24T22:10:44.169Z,14.20
2022-09-24T22:13:15.106Z,14.20
2022-09-24T22:15:43.908Z,15.70
2022-09-24T22:18:11.334Z,14.70
2022-09-24T22:20:42.928Z,14.20
2022-09-24T22:23:10.532Z,14.20
2022-09-24T22:25:38.448Z,14.20
2022-09-24T22:28:05.727Z,14.20
2022-09-24T22:30:32.887Z,14.20
2022-09-24T22:33:00.013Z,14.20
2022-09-24T22:35:45.513Z,14.20
2022-09-24T22:38:13.887Z,14.90
2022-09-24T22:40:41.020Z,14.10
2022-09-24T22:43:08.218Z,14.10
2022-09-24T22:45:35.541Z,14.20
2022-09-24T22:48:03.255Z,14.10
2022-09-24T22:50:30.391Z,14.00
2022-09-24T22:52:57.507Z,14.00
2022-09-24T22:55:24.766Z,13.90
2022-09-24T22:57:51.870Z,14.00
2022-09-24T23:00:18.967Z,14.00
2022-09-24T23:02:46.694Z,14.00
2022-09-24T23:05:14.350Z,13.90
2022-09-24T23:07:42.168Z,13.90
2022-09-24T23:10:09.528Z,13.90
2022-09-24T23:12:36.768Z,13.90
2022-09-24T23:15:04.556Z,13.90
2022-09-24T23:17:31.638Z,13.80
2022-09-24T23:19:58.734Z,13.80
2022-09-24T23:22:25.923Z,14.60
2022-09-24T23:24:53.563Z,13.70
2022-09-24T23:27:20.633Z,13.80
2022-09-24T23:29:47.933Z,13.70
2022-09-24T23:32:15.752Z,13.70
2022-09-24T23:34:43.039Z,13.70
2022-09-24T23:37:13.360Z,13.70
2022-09-24T23:39:40.449Z,13.70
2022-09-24T23:42:08.198Z,13.70
2022-09-24T23:44:35.261Z,13.70
2022-09-24T23:47:02.339Z,13.70
2022-09-24T23:49:29.848Z,13.70
2022-09-24T23:51:56.952Z,14.30
2022-09-24T23:54:24.019Z,13.60
2022-09-24T23:56:51.228Z,13.70
2022-09-24T23:59:18.307Z,13.60
